Time;durP1;ratioP1;P1;durP2;ratioP2;P2;SDS_P1;SDS_P2;PMS_P1;PMS_P2;Temp;Humidity;BMP_temperature;BMP_pressure;BME280_temperature;BME280_humidity;BME280_pressure;Samples;Min_cycle;Max_cycle;Signal;HPM_P1;HPM_P2
2021/10/21 00:01:28;;;;;;;12.63;5.90;;;;;;;17.46;60.98;102045.31;5011846;28;20038;-64
2021/10/21 00:03:59;;;;;;;14.27;6.20;;;;;;;17.46;60.80;102037.28;5013686;28;20045;-65
2021/10/21 00:06:27;;;;;;;13.63;6.05;;;;;;;17.44;60.90;102047.09;5013463;28;20449;-65
2021/10/21 00:08:54;;;;;;;12.65;5.50;;;;;;;17.45;61.07;102043.53;5017547;28;20041;-65
2021/10/21 00:11:22;;;;;;;15.25;5.47;;;;;;;17.48;60.96;102045.31;5032291;28;20454;-65
2021/10/21 00:13:49;;;;;;;10.93;6.00;;;;;;;17.48;60.80;102031.97;5032416;28;20490;-64
2021/10/21 00:16:16;;;;;;;10.82;5.53;;;;;;;17.47;60.96;102035.53;5027099;28;20394;-65
2021/10/21 00:18:44;;;;;;;13.10;5.88;;;;;;;17.45;60.94;102030.19;5011512;28;20117;-64
2021/10/21 00:21:13;;;;;;;11.63;6.05;;;;;;;17.40;61.05;102025.66;5013808;28;20045;-64
2021/10/21 00:23:40;;;;;;;13.27;6.22;;;;;;;17.37;61.09;102031.00;5028557;28;20056;-64
2021/10/21 00:26:08;;;;;;;11.57;5.95;;;;;;;17.38;61.01;102024.78;5023224;28;20072;-64
2021/10/21 00:28:35;;;;;;;12.15;6.05;;;;;;;17.35;60.87;102028.31;5012160;28;20049;-64
2021/10/21 00:31:03;;;;;;;15.50;5.82;;;;;;;17.35;60.90;102027.41;5013241;28;20030;-65
2021/10/21 00:33:30;;;;;;;13.90;5.82;;;;;;;17.35;60.76;102028.31;5016155;28;20034;-65
2021/10/21 00:35:57;;;;;;;11.35;5.43;;;;;;;17.34;60.73;102023.84;5026194;28;20399;-64
2021/10/21 00:38:26;;;;;;;13.60;6.15;;;;;;;17.35;60.76;102028.31;5030901;28;20138;-64
2021/10/21 00:40:54;;;;;;;11.43;5.38;;;;;;;17.35;60.67;102017.63;5030821;28;20045;-65
2021/10/21 00:43:21;;;;;;;10.73;5.60;;;;;;;17.34;60.52;102021.19;5013588;28;20049;-64
2021/10/21 00:45:48;;;;;;;20.55;7.22;;;;;;;17.34;60.69;102020.28;5012264;28;20046;-64
2021/10/21 00:48:16;;;;;;;11.93;6.38;;;;;;;17.32;60.76;102025.63;5022271;28;20513;-64
2021/10/21 00:50:44;;;;;;;10.60;5.78;;;;;;;17.32;60.89;102017.63;5028264;28;20487;-64
2021/10/21 00:53:11;;;;;;;13.77;6.53;;;;;;;17.32;60.89;102017.63;5012046;28;20412;-64
2021/10/21 00:55:40;;;;;;;14.25;6.10;;;;;;;17.32;61.06;102011.41;5011940;28;20041;-64
2021/10/21 00:58:07;;;;;;;13.90;6.93;;;;;;;17.35;61.21;102014.06;5010680;28;20042;-64
2021/10/21 01:00:35;;;;;;;13.73;5.93;;;;;;;17.37;61.25;102015.88;5011681;28;20034;-64
2021/10/21 01:03:02;;;;;;;12.90;5.93;;;;;;;17.37;61.35;102009.66;5016184;28;20037;-64
2021/10/21 01:05:30;;;;;;;13.65;5.70;;;;;;;17.36;61.40;102006.09;5028796;28;20049;-64
2021/10/21 01:07:58;;;;;;;17.02;6.07;;;;;;;17.39;61.31;102011.44;5029223;28;20383;-64
2021/10/21 01:10:25;;;;;;;10.80;6.00;;;;;;;17.42;61.35;102002.56;5026989;28;20112;-65
2021/10/21 01:12:54;;;;;;;13.13;6.28;;;;;;;17.43;61.43;101999.91;5029536;28;20042;-64
2021/10/21 01:15:25;;;;;;;12.52;5.40;;;;;;;17.43;61.50;102010.59;5030938;28;20042;-64
2021/10/21 01:17:54;;;;;;;13.57;6.53;;;;;;;17.43;61.46;102005.25;5013602;28;20050;-64
2021/10/21 01:20:24;;;;;;;11.57;5.43;;;;;;;17.42;61.70;101998.13;5010144;28;20526;-64
2021/10/21 01:22:52;;;;;;;11.25;5.80;;;;;;;17.45;61.68;102002.59;5011600;28;20065;-64
2021/10/21 01:25:20;;;;;;;9.60;5.65;;;;;;;17.44;61.75;101999.03;5024662;28;20498;-64
2021/10/21 01:27:49;;;;;;;12.23;5.50;;;;;;;17.44;61.87;102006.16;5028046;28;20049;-64
2021/10/21 01:30:22;;;;;;;13.40;5.60;;;;;;;17.45;62.08;101995.47;5011468;28;20114;-64
2021/10/21 01:32:50;;;;;;;14.57;6.43;;;;;;;17.43;62.22;101999.91;5012060;28;20519;-63
2021/10/21 01:35:18;;;;;;;13.38;5.15;;;;;;;17.45;62.37;102000.81;5011121;28;20056;-65
2021/10/21 01:37:47;;;;;;;11.80;5.70;;;;;;;17.45;62.49;102006.16;5011253;28;20052;-64
2021/10/21 01:40:16;;;;;;;11.00;5.63;;;;;;;17.42;62.60;101999.88;5011635;28;20065;-65
2021/10/21 01:42:44;;;;;;;19.65;6.55;;;;;;;17.39;62.84;101997.22;5028252;28;20033;-65
2021/10/21 01:45:17;;;;;;;13.63;6.10;;;;;;;17.36;62.82;101992.72;5030003;28;20410;-63
2021/10/21 01:47:44;;;;;;;11.50;5.38;;;;;;;17.33;62.74;101990.03;5012213;28;20451;-65
2021/10/21 01:50:12;;;;;;;12.60;5.10;;;;;;;17.32;62.70;101995.38;5010723;28;20042;-64
2021/10/21 01:52:39;;;;;;;13.85;6.25;;;;;;;17.31;62.66;101991.81;5013762;28;20030;-64
2021/10/21 01:55:10;;;;;;;10.95;5.35;;;;;;;17.29;62.65;101993.56;5030034;28;20053;-65
2021/10/21 01:57:38;;;;;;;12.65;5.15;;;;;;;17.27;62.55;101992.66;5030825;28;20042;-64
2021/10/21 02:00:06;;;;;;;10.05;5.03;;;;;;;17.24;62.52;101987.31;5028454;28;20045;-65
2021/10/21 02:02:34;;;;;;;13.73;5.63;;;;;;;17.20;62.49;101988.13;5013192;28;20048;-64
2021/10/21 02:05:01;;;;;;;9.98;5.13;;;;;;;17.19;62.36;101981.03;5010523;28;20037;-65
2021/10/21 02:07:29;;;;;;;11.50;6.15;;;;;;;17.23;62.34;101990.84;5011474;28;20052;-64
2021/10/21 02:09:56;;;;;;;11.98;5.35;;;;;;;17.25;62.17;101989.09;5014325;28;20042;-64
2021/10/21 02:12:25;;;;;;;13.40;5.90;;;;;;;17.25;62.20;101991.75;5017265;28;20042;-64
2021/10/21 02:14:52;;;;;;;12.18;5.43;;;;;;;17.21;62.18;101986.38;5010452;28;20057;-64
2021/10/21 02:17:22;;;;;;;9.77;5.93;;;;;;;17.23;62.13;101990.84;5010777;28;20041;-64
2021/10/21 02:19:50;;;;;;;11.13;5.32;;;;;;;17.27;62.15;101986.41;5010955;28;20034;-63
2021/10/21 02:22:17;;;;;;;8.70;5.30;;;;;;;17.26;62.29;101988.22;5015675;28;20504;-65
2021/10/21 02:24:45;;;;;;;10.40;6.28;;;;;;;17.26;62.17;101984.66;5011796;28;20041;-64
2021/10/21 02:27:12;;;;;;;13.55;5.47;;;;;;;17.26;62.16;101990.88;5013253;28;20044;-64
2021/10/21 02:29:41;;;;;;;13.55;5.30;;;;;;;17.29;62.05;101996.22;5014635;28;20038;-64
2021/10/21 02:32:08;;;;;;;12.73;6.03;;;;;;;17.31;62.16;101996.25;5011502;28;20042;-64
2021/10/21 02:34:35;;;;;;;9.48;5.35;;;;;;;17.32;62.05;101990.03;5016771;28;20049;-65
2021/10/21 02:37:03;;;;;;;12.38;5.75;;;;;;;17.31;61.97;101993.59;5021680;28;20037;-64
2021/10/21 02:39:31;;;;;;;10.60;5.68;;;;;;;17.29;61.99;101988.22;5014532;28;20038;-64
2021/10/21 02:41:58;;;;;;;10.52;5.00;;;;;;;17.29;62.05;101987.31;5022584;28;20033;-64
2021/10/21 02:44:25;;;;;;;13.68;5.20;;;;;;;17.28;61.58;101991.78;5034515;28;20034;-65
2021/10/21 02:46:54;;;;;;;9.07;4.80;;;;;;;17.27;61.61;101995.31;5027422;28;20048;-64
2021/10/21 02:49:22;;;;;;;12.38;5.85;;;;;;;17.27;61.33;101992.66;5014302;28;20048;-64
2021/10/21 02:51:49;;;;;;;16.55;5.10;;;;;;;17.27;61.09;101994.41;5004475;28;20057;-64
2021/10/21 02:54:16;;;;;;;10.00;5.20;;;;;;;17.24;61.03;101992.63;5024869;28;20037;-64
2021/10/21 02:56:44;;;;;;;12.13;5.20;;;;;;;17.23;60.89;101993.53;5032978;28;20045;-65
2021/10/21 02:59:11;;;;;;;12.98;5.95;;;;;;;17.22;60.84;101989.06;5016650;28;20033;-63
2021/10/21 03:01:38;;;;;;;8.45;4.82;;;;;;;17.24;60.70;101992.63;5024923;28;20041;-64
2021/10/21 03:04:07;;;;;;;13.27;5.95;;;;;;;17.28;60.38;101993.53;5014812;28;20041;-65
2021/10/21 03:06:35;;;;;;;11.75;5.20;;;;;;;17.29;60.44;101990.91;5027500;28;20048;-64
2021/10/21 03:09:02;;;;;;;16.00;5.78;;;;;;;17.29;60.37;101998.00;5018139;28;20045;-64
2021/10/21 03:11:29;;;;;;;10.50;5.10;;;;;;;17.26;60.49;101988.22;5026979;28;20045;-64
2021/10/21 03:13:57;;;;;;;9.77;5.05;;;;;;;17.25;60.42;101985.53;5014172;28;20064;-64
2021/10/21 03:16:29;;;;;;;10.75;4.90;;;;;;;17.27;60.50;101998.00;5014754;28;20046;-64
2021/10/21 03:18:56;;;;;;;12.35;5.40;;;;;;;17.26;60.52;101993.56;5014042;28;20501;-65
2021/10/21 03:21:25;;;;;;;9.00;5.53;;;;;;;17.26;60.49;101988.22;5013948;28;20045;-64
2021/10/21 03:23:53;;;;;;;10.85;5.75;;;;;;;17.26;60.35;101990.00;5024328;28;20037;-65
2021/10/21 03:26:20;;;;;;;9.32;5.78;;;;;;;17.25;60.37;101983.75;5027169;28;20053;-64
2021/10/21 03:28:47;;;;;;;9.25;5.03;;;;;;;17.24;60.55;101986.41;5013218;28;20048;-64
2021/10/21 03:31:15;;;;;;;9.80;5.68;;;;;;;17.25;60.56;101994.44;5018419;28;20046;-64
2021/10/21 03:33:42;;;;;;;11.48;5.05;;;;;;;17.23;60.58;101995.28;5013532;28;20030;-65
2021/10/21 03:36:09;;;;;;;12.05;5.32;;;;;;;17.19;60.71;101994.38;5015180;28;20030;-64
2021/10/21 03:38:38;;;;;;;12.48;6.18;;;;;;;17.17;60.68;101993.47;5032574;28;20037;-64
2021/10/21 03:41:06;;;;;;;10.13;5.05;;;;;;;17.18;60.76;101997.03;5013521;28;20030;-64
2021/10/21 03:43:33;;;;;;;14.43;6.03;;;;;;;17.19;60.62;101999.72;5013387;28;20049;-64
2021/10/21 03:46:01;;;;;;;11.48;6.80;;;;;;;17.17;60.61;101993.47;5021235;28;20037;-64
2021/10/21 03:48:29;;;;;;;11.13;5.72;;;;;;;17.15;60.85;101992.56;5016618;28;20034;-64
2021/10/21 03:50:56;;;;;;;10.93;5.88;;;;;;;17.11;60.76;101988.09;5013792;28;20419;-64
2021/10/21 03:53:23;;;;;;;11.15;5.32;;;;;;;17.09;60.87;101990.72;5019281;28;20045;-64
2021/10/21 03:55:54;;;;;;;11.45;6.15;;;;;;;17.10;61.00;101991.63;5032647;28;20048;-64
2021/10/21 03:58:21;;;;;;;12.75;5.80;;;;;;;17.08;60.81;101988.94;5016190;28;20042;-63
2021/10/21 04:00:49;;;;;;;10.05;5.60;;;;;;;17.10;60.82;101983.63;5013311;28;20049;-65
2021/10/21 04:03:16;;;;;;;10.80;5.70;;;;;;;17.09;60.65;101987.16;5012743;28;20037;-64
2021/10/21 04:05:43;;;;;;;11.43;5.43;;;;;;;17.09;60.57;101979.16;5020274;28;20042;-64
2021/10/21 04:08:11;;;;;;;9.25;5.13;;;;;;;17.08;60.45;101978.25;5012887;28;20081;-63
2021/10/21 04:10:39;;;;;;;12.43;5.32;;;;;;;17.09;60.32;101977.38;5012879;28;20042;-65
2021/10/21 04:13:08;;;;;;;10.02;5.38;;;;;;;17.07;60.43;101975.56;5012122;28;20113;-65
2021/10/21 04:15:35;;;;;;;10.80;4.95;;;;;;;17.05;60.51;101974.69;5013400;28;20037;-64
2021/10/21 04:18:03;;;;;;;11.05;5.80;;;;;;;17.00;60.65;101981.78;5027696;28;20435;-64
2021/10/21 04:20:30;;;;;;;11.82;5.97;;;;;;;16.98;60.74;101983.53;5012518;28;20034;-64
2021/10/21 04:22:57;;;;;;;12.95;5.53;;;;;;;16.97;60.71;101984.41;5012796;28;20042;-64
2021/10/21 04:25:25;;;;;;;9.55;5.47;;;;;;;16.96;60.90;101979.94;5014090;28;20499;-64
2021/10/21 04:27:52;;;;;;;13.85;5.97;;;;;;;17.01;60.84;101976.41;5010063;28;20072;-64
2021/10/21 04:30:21;;;;;;;11.68;6.53;;;;;;;17.05;60.79;101982.69;5030555;28;20056;-64
2021/10/21 04:32:48;;;;;;;14.23;5.68;;;;;;;17.02;60.95;101977.31;5021422;28;20057;-64
2021/10/21 04:35:16;;;;;;;12.68;5.93;;;;;;;16.97;61.18;101976.41;5031835;28;20037;-64
2021/10/21 04:37:43;;;;;;;11.38;5.65;;;;;;;16.94;61.27;101976.34;5031734;28;20048;-64
2021/10/21 04:40:12;;;;;;;11.20;5.65;;;;;;;16.92;61.48;101979.03;5031793;28;20044;-64
2021/10/21 04:42:39;;;;;;;14.40;6.43;;;;;;;16.93;61.45;101978.16;5022909;28;20041;-64
2021/10/21 04:45:08;;;;;;;13.60;5.43;;;;;;;16.96;61.56;101985.28;4995738;28;20395;-65
2021/10/21 04:47:36;;;;;;;13.85;6.15;;;;;;;16.96;61.51;101983.50;5016906;28;20034;-64
2021/10/21 04:50:04;;;;;;;12.10;5.65;;;;;;;16.97;61.74;101989.72;5011920;28;20041;-65
2021/10/21 04:52:32;;;;;;;13.23;6.50;;;;;;;16.96;61.95;101980.84;5022235;28;20087;-64
2021/10/21 04:54:59;;;;;;;12.95;5.95;;;;;;;16.96;61.98;101986.16;5020535;28;20053;-65
2021/10/21 04:57:26;;;;;;;12.80;5.95;;;;;;;16.98;62.09;101988.84;5031602;28;20406;-65
2021/10/21 04:59:54;;;;;;;10.60;6.07;;;;;;;17.03;62.14;101985.34;5030187;28;20129;-64
2021/10/21 05:02:21;;;;;;;12.80;5.72;;;;;;;17.03;62.23;101985.34;5016539;28;20505;-64
2021/10/21 05:04:50;;;;;;;13.32;6.68;;;;;;;17.07;62.27;101989.81;5012292;28;20054;-63
2021/10/21 05:07:17;;;;;;;10.27;5.60;;;;;;;17.07;62.21;101981.81;5024334;28;20495;-64
2021/10/21 05:09:45;;;;;;;10.38;6.35;;;;;;;17.21;62.24;101984.59;5009663;28;20042;-64
2021/10/21 05:12:12;;;;;;;13.50;6.78;;;;;;;17.43;62.18;101994.56;5010877;28;20490;-63
2021/10/21 05:14:39;;;;;;;12.30;6.72;;;;;;;17.64;62.12;101987.63;5010674;28;20415;-64
2021/10/21 05:17:07;;;;;;;11.68;7.22;;;;;;;17.89;62.42;101998.47;5010450;28;20053;-64
2021/10/21 05:19:34;;;;;;;13.43;8.45;;;;;;;18.11;62.44;102001.25;5010802;28;20046;-64
2021/10/21 05:22:04;;;;;;;14.55;8.48;;;;;;;18.30;62.59;101997.75;5010839;28;20049;-65
2021/10/21 05:24:31;;;;;;;16.92;9.48;;;;;;;18.57;62.56;102005.91;5010720;28;20503;-64
2021/10/21 05:26:59;;;;;;;14.98;8.82;;;;;;;18.73;62.41;102003.25;5009666;28;20041;-65
2021/10/21 05:29:26;;;;;;;13.55;8.90;;;;;;;18.74;62.35;101995.22;5011837;28;20523;-64
2021/10/21 05:31:54;;;;;;;16.48;9.60;;;;;;;18.86;62.45;102005.94;5010268;28;20091;-65
2021/10/21 05:34:21;;;;;;;17.50;8.95;;;;;;;18.88;62.33;102006.84;5010847;28;20369;-64
2021/10/21 05:36:49;;;;;;;13.90;9.25;;;;;;;18.95;62.26;102005.97;5010502;28;20050;-65
2021/10/21 05:39:18;;;;;;;13.95;8.55;;;;;;;19.24;62.13;102011.31;4992949;28;20056;-64
2021/10/21 05:41:46;;;;;;;15.02;8.45;;;;;;;19.51;61.39;102018.50;4993458;28;20034;-64
2021/10/21 05:44:13;;;;;;;12.27;7.45;;;;;;;19.55;61.07;102025.66;5010657;28;20431;-64
2021/10/21 05:46:40;;;;;;;12.55;7.70;;;;;;;19.48;59.71;102015.84;5010882;28;20408;-64
2021/10/21 05:49:08;;;;;;;13.27;7.00;;;;;;;19.39;59.26;102024.72;5011009;28;20037;-64
2021/10/21 05:51:35;;;;;;;13.18;7.20;;;;;;;19.48;58.87;102023.88;5010623;28;20057;-64
2021/10/21 05:54:02;;;;;;;13.75;7.18;;;;;;;19.78;59.29;102033.63;5010257;28;20045;-64
2021/10/21 05:56:31;;;;;;;11.77;6.50;;;;;;;20.08;58.77;102033.59;5010777;28;20408;-64
2021/10/21 05:58:59;;;;;;;14.85;9.77;;;;;;;20.39;58.44;102023.66;5010540;28;20046;-65
2021/10/21 06:01:26;;;;;;;16.13;10.73;;;;;;;20.47;58.55;102040.63;5011062;28;20053;-64
2021/10/21 06:03:53;;;;;;;12.70;7.55;;;;;;;20.40;58.08;102036.19;5010213;28;20038;-66
2021/10/21 06:06:21;;;;;;;13.27;7.47;;;;;;;20.37;57.87;102038.84;5009788;28;20053;-65
2021/10/21 06:08:48;;;;;;;13.10;7.90;;;;;;;20.34;57.58;102029.94;5010074;28;20046;-65
2021/10/21 06:11:16;;;;;;;11.15;6.85;;;;;;;20.48;57.78;102039.69;4997539;28;20052;-65
2021/10/21 06:13:45;;;;;;;13.10;6.82;;;;;;;20.86;57.29;102033.25;5010291;28;20049;-64
2021/10/21 06:16:12;;;;;;;10.77;6.45;;;;;;;20.88;56.44;102034.09;5012479;28;20061;-63
2021/10/21 06:18:40;;;;;;;18.27;7.45;;;;;;;20.82;56.32;102042.19;5018091;28;20034;-64
2021/10/21 06:21:10;;;;;;;13.18;7.10;;;;;;;20.89;56.48;102035.88;5009952;28;20046;-64
2021/10/21 06:23:38;;;;;;;11.52;6.70;;;;;;;21.05;56.22;102045.63;5023469;28;20037;-64
2021/10/21 06:26:05;;;;;;;11.50;7.20;;;;;;;20.97;55.94;102044.78;5010601;28;20042;-65
2021/10/21 06:28:33;;;;;;;10.65;6.25;;;;;;;21.10;55.66;102043.81;5010259;28;20053;-65
2021/10/21 06:31:03;;;;;;;9.77;5.82;;;;;;;21.39;55.23;102055.28;5009836;28;20483;-65
2021/10/21 06:33:30;;;;;;;11.40;6.32;;;;;;;21.34;54.46;102057.06;5009872;28;20382;-65
2021/10/21 06:35:58;;;;;;;11.68;6.72;;;;;;;21.28;54.37;102059.81;5010614;28;20038;-64
2021/10/21 06:38:25;;;;;;;9.43;6.45;;;;;;;21.55;54.50;102069.44;4994745;28;20057;-65
2021/10/21 06:40:53;;;;;;;9.65;6.13;;;;;;;21.85;52.89;102060.22;4990970;28;20489;-65
2021/10/21 06:43:20;;;;;;;11.68;6.55;;;;;;;21.74;53.00;102067.47;4990790;28;20042;-64
2021/10/21 06:45:48;;;;;;;9.98;6.70;;;;;;;21.71;53.44;102071.09;4990958;28;20046;-65
2021/10/21 06:48:17;;;;;;;10.85;6.30;;;;;;;21.82;52.51;102060.25;4990999;28;20053;-66
2021/10/21 06:50:44;;;;;;;10.48;6.05;;;;;;;22.16;52.28;102067.09;4991278;28;20050;-65
2021/10/21 06:53:11;;;;;;;12.00;6.32;;;;;;;22.56;52.66;102072.00;4990656;28;20385;-65
2021/10/21 06:55:39;;;;;;;8.77;6.22;;;;;;;22.66;51.48;102068.25;4990251;28;20400;-65
2021/10/21 06:58:06;;;;;;;10.80;5.60;;;;;;;23.07;51.30;102074.88;4990755;28;20042;-65
2021/10/21 07:00:39;;;;;;;10.23;5.50;;;;;;;23.39;50.09;102072.56;4990223;28;20042;-64
2021/10/21 07:03:06;;;;;;;8.50;5.80;;;;;;;23.20;49.67;102071.09;4988943;28;20038;-65
2021/10/21 07:05:39;;;;;;;10.25;6.22;;;;;;;22.87;50.02;102077.88;4990469;28;20065;-65
2021/10/21 07:08:07;;;;;;;12.45;7.35;;;;;;;22.54;50.15;102068.41;4990934;28;20487;-66
2021/10/21 07:10:35;;;;;;;12.50;7.35;;;;;;;22.25;50.11;102079.56;4989468;28;20038;-66
2021/10/21 07:13:04;;;;;;;13.68;7.18;;;;;;;22.04;50.33;102083.38;4987494;28;20054;-65
2021/10/21 07:15:32;;;;;;;12.05;7.05;;;;;;;22.25;50.93;102072.34;4990134;28;20085;-65
2021/10/21 07:18:00;;;;;;;10.95;6.90;;;;;;;22.63;50.17;102076.38;4990903;28;20046;-65
2021/10/21 07:20:27;;;;;;;11.18;7.10;;;;;;;22.93;49.90;102081.38;4993062;28;20400;-65
2021/10/21 07:22:56;;;;;;;11.85;6.55;;;;;;;23.30;49.83;102078.13;4985802;28;20041;-65
2021/10/21 07:25:27;;;;;;;10.32;5.65;;;;;;;23.14;49.32;102074.78;4983721;28;20049;-64
2021/10/21 07:27:54;;;;;;;9.63;6.45;;;;;;;22.87;49.13;102070.69;5012633;28;20042;-65
2021/10/21 07:30:21;;;;;;;13.27;6.47;;;;;;;22.93;49.35;102067.91;5012349;28;20038;-64
2021/10/21 07:32:49;;;;;;;12.40;6.82;;;;;;;23.25;49.29;102071.91;5013505;28;20084;-64
2021/10/21 07:35:17;;;;;;;14.43;7.57;;;;;;;23.13;49.05;102070.28;5013000;28;20044;-64
2021/10/21 07:37:44;;;;;;;14.73;7.53;;;;;;;22.85;48.85;102075.19;5012419;28;20038;-65
2021/10/21 07:40:14;;;;;;;11.18;6.60;;;;;;;22.54;49.16;102069.31;5013076;28;20046;-64
2021/10/21 07:42:41;;;;;;;10.30;5.43;;;;;;;22.86;49.46;102052.75;5012937;28;20057;-64
2021/10/21 07:45:11;;;;;;;10.15;6.88;;;;;;;23.10;48.90;102066.78;5022142;28;20052;-65
2021/10/21 07:47:38;;;;;;;11.57;6.20;;;;;;;22.99;48.99;102070.50;5011030;28;20046;-65
2021/10/21 07:50:07;;;;;;;11.10;7.13;;;;;;;22.77;48.73;102071.75;5010340;28;20064;-65
2021/10/21 07:52:35;;;;;;;11.50;7.30;;;;;;;22.55;48.73;102071.09;5011819;28;20495;-64
2021/10/21 07:55:04;;;;;;;12.02;7.53;;;;;;;22.34;49.12;102081.22;5011954;28;20042;-64
2021/10/21 07:57:33;;;;;;;9.75;7.45;;;;;;;22.45;49.52;102071.25;5012412;28;20038;-65
2021/10/21 08:00:00;;;;;;;11.10;7.93;;;;;;;22.79;49.58;102072.59;5012557;28;20038;-64
2021/10/21 08:02:28;;;;;;;10.68;7.25;;;;;;;22.89;49.36;102070.66;5013069;28;20038;-64
2021/10/21 08:04:55;;;;;;;13.45;7.35;;;;;;;23.25;49.45;102069.22;5012069;28;20042;-65
2021/10/21 08:07:23;;;;;;;9.68;6.88;;;;;;;23.42;49.36;102062.66;5014475;28;20391;-64
2021/10/21 08:09:50;;;;;;;12.82;7.35;;;;;;;23.57;49.00;102074.09;5010925;28;20064;-66
2021/10/21 08:12:18;;;;;;;10.20;7.90;;;;;;;23.43;48.74;102071.63;5011423;28;20046;-65
2021/10/21 08:14:46;;;;;;;13.07;7.75;;;;;;;23.18;48.54;102072.91;5011799;28;20053;-65
2021/10/21 08:17:14;;;;;;;10.73;7.38;;;;;;;23.01;48.73;102062.41;5007385;28;20050;-65
2021/10/21 08:19:42;;;;;;;10.40;6.70;;;;;;;23.33;49.29;102057.41;5006741;28;20130;-65
2021/10/21 08:22:09;;;;;;;14.77;8.88;;;;;;;23.42;48.84;102061.75;5006207;28;20512;-65
2021/10/21 08:24:36;;;;;;;10.73;9.10;;;;;;;23.22;48.27;102058.50;5014869;28;20041;-65
2021/10/21 08:27:04;;;;;;;12.98;10.43;;;;;;;23.10;48.47;102056.91;5011533;28;20040;-65
2021/10/21 08:29:32;;;;;;;12.73;8.63;;;;;;;23.27;48.83;102057.50;5019180;28;20034;-64
2021/10/21 08:32:04;;;;;;;20.45;18.33;;;;;;;23.27;48.82;102062.00;5011815;28;20041;-64
2021/10/21 08:34:31;;;;;;;12.75;9.57;;;;;;;23.09;48.71;102056.91;5006466;28;20066;-65
2021/10/21 08:36:59;;;;;;;10.63;8.07;;;;;;;22.89;48.66;102057.19;5009325;28;20514;-65
2021/10/21 08:39:26;;;;;;;12.60;9.43;;;;;;;23.02;49.09;102065.09;5016397;28;20709;-65
2021/10/21 08:41:54;;;;;;;11.38;7.93;;;;;;;23.43;49.12;102059.00;5010354;28;20061;-64
2021/10/21 08:44:21;;;;;;;15.15;10.02;;;;;;;23.61;48.57;102054.28;5011677;28;20038;-65
2021/10/21 08:46:53;;;;;;;9.43;7.15;;;;;;;23.59;48.11;102048.91;5011095;28;20046;-65
2021/10/21 08:49:22;;;;;;;11.23;6.57;;;;;;;23.65;47.93;102050.59;5012005;28;20061;-65
2021/10/21 08:51:54;;;;;;;11.82;6.60;;;;;;;23.50;47.65;102054.44;5012182;28;20823;-65
2021/10/21 08:54:22;;;;;;;10.95;7.15;;;;;;;23.33;47.65;102064.59;5011290;28;20060;-65
2021/10/21 08:56:49;;;;;;;10.18;6.90;;;;;;;23.15;47.88;102051.41;5011342;28;20049;-64
2021/10/21 08:59:17;;;;;;;12.95;8.07;;;;;;;22.94;48.09;102053.53;5009820;28;20038;-65
2021/10/21 09:01:46;;;;;;;12.25;9.25;;;;;;;22.85;48.47;102060.84;5011810;28;20053;-64
2021/10/21 09:09:45;;;;;;;12.13;8.07;;;;;;;22.46;49.48;102054.16;5008522;28;20041;-64
2021/10/21 09:12:14;;;;;;;13.45;9.30;;;;;;;22.40;49.57;102054.22;4992674;28;20519;-64
2021/10/21 09:14:43;;;;;;;14.98;10.52;;;;;;;22.39;49.95;102061.41;4993951;28;20044;-65
2021/10/21 09:17:13;;;;;;;14.30;7.75;;;;;;;22.68;49.86;102047.59;5008495;28;20034;-65
2021/10/21 09:19:41;;;;;;;12.05;7.88;;;;;;;22.85;49.30;102048.25;5011565;28;20406;-66
2021/10/21 09:22:24;;;;;;;12.80;8.18;;;;;;;22.87;49.24;102057.22;5011309;28;20042;-65
2021/10/21 09:24:53;;;;;;;11.75;8.82;;;;;;;22.76;48.95;102047.53;5010023;28;20066;-65
2021/10/21 09:27:24;;;;;;;13.82;10.55;;;;;;;22.66;48.91;102052.09;5010998;28;20404;-65
2021/10/21 09:29:53;;;;;;;15.82;9.38;;;;;;;22.79;49.37;102055.53;5011382;28;20480;-65
2021/10/21 09:32:21;;;;;;;16.15;8.40;;;;;;;22.94;49.48;102047.25;5011569;28;20053;-65
2021/10/21 09:34:53;;;;;;;14.35;9.45;;;;;;;22.89;49.30;102044.63;5011369;28;20038;-65
2021/10/21 09:37:26;;;;;;;13.27;9.00;;;;;;;22.82;49.29;102042.03;5010934;28;20054;-65
2021/10/21 09:39:55;;;;;;;11.88;8.38;;;;;;;22.69;49.07;102040.41;5011448;28;20048;-65
2021/10/21 09:42:28;;;;;;;9.77;7.85;;;;;;;22.83;49.39;102044.72;5009860;28;20049;-65
2021/10/21 09:45:12;;;;;;;14.68;9.98;;;;;;;23.02;49.09;102046.22;5010322;28;20042;-65
2021/10/21 09:47:41;;;;;;;14.85;8.98;;;;;;;23.16;49.25;102046.00;5009428;28;20081;-64
2021/10/21 09:50:21;;;;;;;10.30;7.63;;;;;;;23.37;48.58;102034.84;5009577;28;20038;-65
2021/10/21 09:53:20;;;;;;;11.52;7.85;;;;;;;23.30;48.20;102032.31;5011032;28;20046;-65
2021/10/21 09:55:49;;;;;;;10.27;7.47;;;;;;;23.22;48.60;102037.81;4950300;28;20067;-66
2021/10/21 09:58:18;;;;;;;10.38;7.38;;;;;;;23.51;48.24;102031.97;4997829;28;20081;-67
2021/10/21 10:00:46;;;;;;;13.73;7.38;;;;;;;23.97;48.27;102028.41;5008591;28;20050;-66
2021/10/21 10:03:16;;;;;;;12.13;8.70;;;;;;;24.26;47.82;102027.88;5009470;28;20038;-66
2021/10/21 10:05:44;;;;;;;9.90;6.80;;;;;;;24.15;47.31;102019.97;5009448;28;20121;-66
2021/10/21 10:08:12;;;;;;;11.52;7.15;;;;;;;24.04;47.45;102030.97;5010063;28;20404;-65
2021/10/21 10:10:43;;;;;;;9.65;6.82;;;;;;;24.28;47.48;102017.94;5011210;28;20044;-65
2021/10/21 10:13:15;;;;;;;13.43;7.78;;;;;;;24.48;47.41;102008.47;5009790;28;20053;-65
2021/10/21 10:15:45;;;;;;;9.65;7.32;;;;;;;24.78;47.08;102014.13;5009949;28;20124;-65
2021/10/21 10:18:17;;;;;;;11.40;6.20;;;;;;;25.08;46.46;102002.59;5009980;28;20036;-64
2021/10/21 10:20:48;;;;;;;9.55;6.72;;;;;;;25.22;45.91;101995.03;5010388;28;20034;-65
2021/10/21 10:23:16;;;;;;;10.75;7.47;;;;;;;25.18;46.11;101993.34;5009970;28;20038;-65
2021/10/21 10:25:49;;;;;;;9.85;6.68;;;;;;;25.45;45.31;101988.16;5010787;28;20137;-65
2021/10/21 10:28:17;;;;;;;9.37;6.93;;;;;;;25.49;45.33;101982.63;5009814;28;20058;-65
2021/10/21 10:30:47;;;;;;;10.65;7.50;;;;;;;25.54;44.83;101977.06;4993260;28;20038;-65
2021/10/21 10:33:37;;;;;;;13.50;7.10;;;;;;;25.60;44.84;101979.69;5008861;28;20084;-64
2021/10/21 10:36:30;;;;;;;9.43;6.68;;;;;;;25.57;44.46;101975.22;5007706;28;20038;-65
2021/10/21 10:38:58;;;;;;;11.27;7.60;;;;;;;25.55;44.04;101970.75;4994777;28;20049;-65
2021/10/21 10:41:54;;;;;;;10.50;7.03;;;;;;;25.41;43.75;101973.81;5011196;28;20049;-65
2021/10/21 10:44:58;;;;;;;10.10;7.22;;;;;;;25.36;44.30;101967.66;5008545;28;20104;-65
2021/10/21 10:47:45;;;;;;;14.65;7.80;;;;;;;25.35;44.36;101957.75;5010067;28;20038;-65
2021/10/21 10:50:56;;;;;;;11.27;7.95;;;;;;;25.30;44.50;101962.41;4990535;28;20395;-65
2021/10/21 10:53:52;;;;;;;10.95;8.02;;;;;;;25.06;44.59;101963.03;4991736;28;20456;-65
2021/10/21 10:56:44;;;;;;;12.55;8.90;;;;;;;24.75;44.59;101969.13;5012702;28;20046;-65
2021/10/21 10:59:21;;;;;;;13.98;10.25;;;;;;;24.43;44.60;101964.47;5013986;28;20080;-64
2021/10/21 11:01:49;;;;;;;11.80;8.98;;;;;;;24.11;44.94;101958.88;5012546;28;20531;-65
2021/10/21 11:05:02;;;;;;;12.43;9.10;;;;;;;23.89;45.27;101957.56;5013214;28;20038;-65
2021/10/21 11:07:48;;;;;;;12.77;8.65;;;;;;;23.77;45.76;101950.56;4968539;28;20058;-64
2021/10/21 11:10:41;;;;;;;13.80;10.38;;;;;;;23.87;46.48;101951.28;4992199;28;20050;-65
2021/10/21 11:13:42;;;;;;;11.40;8.18;;;;;;;24.05;46.54;101945.50;5011192;28;20404;-65
2021/10/21 11:16:41;;;;;;;12.68;8.00;;;;;;;24.16;46.50;101940.75;4991493;28;20038;-65
2021/10/21 11:19:10;;;;;;;10.02;6.85;;;;;;;24.25;46.57;101935.22;5009084;28;20048;-65
2021/10/21 11:21:55;;;;;;;10.50;7.93;;;;;;;24.35;46.28;101934.06;5013205;28;20037;-64
2021/10/21 11:24:58;;;;;;;9.80;7.07;;;;;;;24.41;46.23;101933.94;5013245;28;20061;-66
2021/10/21 11:27:31;;;;;;;10.32;7.82;;;;;;;24.44;46.25;101927.56;5032805;28;20041;-65
2021/10/21 11:30:12;;;;;;;12.88;7.72;;;;;;;24.53;46.02;101932.78;5015885;28;20045;-65
2021/10/21 11:32:43;;;;;;;12.45;7.18;;;;;;;24.44;45.71;101924.88;5012734;28;20046;-64
2021/10/21 11:35:14;;;;;;;11.23;7.47;;;;;;;24.40;45.67;101928.59;5013197;28;20042;-65